sensor_id;sensor_type;location;lat;lon;timestamp;P1;durP1;ratioP1;P2;durP2;ratioP2
3249;SDS011;1637;42.020;23.992;2022-09-09T00:00:18;20.17;;;11.63;;
3249;SDS011;1637;42.020;23.992;2022-09-09T00:02:49;13.53;;;10.23;;
3249;SDS011;1637;42.020;23.992;2022-09-09T00:05:23;21.83;;;11.70;;
3249;SDS011;1637;42.020;23.992;2022-09-09T00:07:59;27.70;;;18.50;;
3249;SDS011;1637;42.020;23.992;2022-09-09T00:10:31;27.33;;;18.83;;
3249;SDS011;1637;42.020;23.992;2022-09-09T00:13:03;26.30;;;12.20;;
3249;SDS011;1637;42.020;23.992;2022-09-09T00:15:42;22.23;;;11.83;;
3249;SDS011;1637;42.020;23.992;2022-09-09T00:18:18;20.10;;;13.20;;
3249;SDS011;1637;42.020;23.992;2022-09-09T00:20:53;19.93;;;14.93;;
3249;SDS011;1637;42.020;23.992;2022-09-09T00:23:30;18.60;;;12.93;;
3249;SDS011;1637;42.020;23.992;2022-09-09T00:26:01;24.10;;;13.00;;
3249;SDS011;1637;42.020;23.992;2022-09-09T00:28:33;25.27;;;14.60;;
3249;SDS011;1637;42.020;23.992;2022-09-09T00:31:08;27.57;;;13.00;;
3249;SDS011;1637;42.020;23.992;2022-09-09T00:33:38;14.60;;;12.33;;
3249;SDS011;1637;42.020;23.992;2022-09-09T00:36:09;18.27;;;12.63;;
3249;SDS011;1637;42.020;23.992;2022-09-09T00:38:43;18.73;;;11.60;;
3249;SDS011;1637;42.020;23.992;2022-09-09T00:41:15;15.97;;;11.97;;
3249;SDS011;1637;42.020;23.992;2022-09-09T00:43:49;14.20;;;11.00;;
3249;SDS011;1637;42.020;23.992;2022-09-09T00:46:30;16.77;;;11.03;;
3249;SDS011;1637;42.020;23.992;2022-09-09T00:49:14;14.40;;;11.90;;
3249;SDS011;1637;42.020;23.992;2022-09-09T00:51:47;20.03;;;12.40;;
3249;SDS011;1637;42.020;23.992;2022-09-09T00:54:30;16.27;;;11.40;;
3249;SDS011;1637;42.020;23.992;2022-09-09T00:57:07;18.97;;;12.03;;
3249;SDS011;1637;42.020;23.992;2022-09-09T00:59:46;21.37;;;12.77;;
3249;SDS011;1637;42.020;23.992;2022-09-09T01:02:18;26.43;;;12.50;;
3249;SDS011;1637;42.020;23.992;2022-09-09T01:04:52;17.03;;;11.70;;
3249;SDS011;1637;42.020;23.992;2022-09-09T01:07:20;17.60;;;13.03;;
3249;SDS011;1637;42.020;23.992;2022-09-09T01:09:55;17.10;;;12.13;;
3249;SDS011;1637;42.020;23.992;2022-09-09T01:12:25;13.90;;;11.60;;
3249;SDS011;1637;42.020;23.992;2022-09-09T01:14:58;15.87;;;12.77;;
3249;SDS011;1637;42.020;23.992;2022-09-09T01:17:31;16.73;;;12.50;;
3249;SDS011;1637;42.020;23.992;2022-09-09T01:20:03;16.00;;;14.07;;
3249;SDS011;1637;42.020;23.992;2022-09-09T01:22:37;18.83;;;12.00;;
3249;SDS011;1637;42.020;23.992;2022-09-09T01:25:18;17.93;;;12.43;;
3249;SDS011;1637;42.020;23.992;2022-09-09T01:27:52;19.30;;;12.10;;
3249;SDS011;1637;42.020;23.992;2022-09-09T01:30:22;16.17;;;11.87;;
3249;SDS011;1637;42.020;23.992;2022-09-09T01:32:50;41.23;;;15.10;;
3249;SDS011;1637;42.020;23.992;2022-09-09T01:35:22;18.10;;;12.93;;
3249;SDS011;1637;42.020;23.992;2022-09-09T01:37:58;22.23;;;13.50;;
3249;SDS011;1637;42.020;23.992;2022-09-09T01:40:25;20.40;;;11.43;;
3249;SDS011;1637;42.020;23.992;2022-09-09T01:42:53;20.20;;;13.43;;
3249;SDS011;1637;42.020;23.992;2022-09-09T01:45:21;16.13;;;11.90;;
3249;SDS011;1637;42.020;23.992;2022-09-09T01:47:50;16.60;;;12.37;;
3249;SDS011;1637;42.020;23.992;2022-09-09T01:50:18;16.00;;;11.57;;
3249;SDS011;1637;42.020;23.992;2022-09-09T01:52:46;16.20;;;13.10;;
3249;SDS011;1637;42.020;23.992;2022-09-09T01:55:16;14.53;;;11.93;;
3249;SDS011;1637;42.020;23.992;2022-09-09T01:57:51;18.13;;;13.20;;
3249;SDS011;1637;42.020;23.992;2022-09-09T02:00:27;15.77;;;12.80;;
3249;SDS011;1637;42.020;23.992;2022-09-09T02:02:58;16.20;;;12.60;;
3249;SDS011;1637;42.020;23.992;2022-09-09T02:05:29;16.73;;;12.50;;
3249;SDS011;1637;42.020;23.992;2022-09-09T02:08:03;21.93;;;13.87;;
3249;SDS011;1637;42.020;23.992;2022-09-09T02:10:35;23.43;;;14.17;;
3249;SDS011;1637;42.020;23.992;2022-09-09T02:13:10;16.27;;;12.57;;
3249;SDS011;1637;42.020;23.992;2022-09-09T02:15:40;16.73;;;12.30;;
3249;SDS011;1637;42.020;23.992;2022-09-09T02:18:12;21.30;;;11.93;;
3249;SDS011;1637;42.020;23.992;2022-09-09T02:20:41;16.07;;;12.57;;
3249;SDS011;1637;42.020;23.992;2022-09-09T02:23:11;21.00;;;15.10;;
3249;SDS011;1637;42.020;23.992;2022-09-09T02:25:38;20.00;;;16.30;;
3249;SDS011;1637;42.020;23.992;2022-09-09T02:28:09;28.30;;;19.50;;
3249;SDS011;1637;42.020;23.992;2022-09-09T02:30:39;37.73;;;24.17;;
3249;SDS011;1637;42.020;23.992;2022-09-09T02:33:08;40.00;;;24.67;;
3249;SDS011;1637;42.020;23.992;2022-09-09T02:35:38;28.13;;;20.60;;
3249;SDS011;1637;42.020;23.992;2022-09-09T02:38:09;19.17;;;14.10;;
3249;SDS011;1637;42.020;23.992;2022-09-09T02:40:39;22.80;;;16.40;;
3249;SDS011;1637;42.020;23.992;2022-09-09T02:43:05;16.63;;;11.10;;
3249;SDS011;1637;42.020;23.992;2022-09-09T02:45:36;19.03;;;13.87;;
3249;SDS011;1637;42.020;23.992;2022-09-09T02:48:09;17.87;;;11.77;;
3249;SDS011;1637;42.020;23.992;2022-09-09T02:50:45;18.87;;;10.90;;
3249;SDS011;1637;42.020;23.992;2022-09-09T02:53:22;18.37;;;11.80;;
3249;SDS011;1637;42.020;23.992;2022-09-09T02:55:54;18.53;;;11.53;;
3249;SDS011;1637;42.020;23.992;2022-09-09T02:58:24;22.37;;;13.00;;
3249;SDS011;1637;42.020;23.992;2022-09-09T03:00:53;35.53;;;12.80;;
3249;SDS011;1637;42.020;23.992;2022-09-09T03:03:20;18.60;;;13.73;;
3249;SDS011;1637;42.020;23.992;2022-09-09T03:05:47;28.30;;;12.70;;
3249;SDS011;1637;42.020;23.992;2022-09-09T03:08:14;14.70;;;12.27;;
3249;SDS011;1637;42.020;23.992;2022-09-09T03:10:41;13.70;;;11.40;;
3249;SDS011;1637;42.020;23.992;2022-09-09T03:13:08;14.93;;;12.30;;
3249;SDS011;1637;42.020;23.992;2022-09-09T03:15:35;17.10;;;13.33;;
3249;SDS011;1637;42.020;23.992;2022-09-09T03:18:03;14.67;;;12.77;;
3249;SDS011;1637;42.020;23.992;2022-09-09T03:20:30;17.83;;;12.43;;
3249;SDS011;1637;42.020;23.992;2022-09-09T03:22:58;18.23;;;13.00;;
3249;SDS011;1637;42.020;23.992;2022-09-09T03:25:26;18.33;;;12.33;;
3249;SDS011;1637;42.020;23.992;2022-09-09T03:27:54;19.43;;;12.83;;
3249;SDS011;1637;42.020;23.992;2022-09-09T03:30:21;23.00;;;12.00;;
3249;SDS011;1637;42.020;23.992;2022-09-09T03:32:48;36.57;;;21.60;;
3249;SDS011;1637;42.020;23.992;2022-09-09T03:35:16;24.40;;;16.03;;
3249;SDS011;1637;42.020;23.992;2022-09-09T03:37:43;36.90;;;16.43;;
3249;SDS011;1637;42.020;23.992;2022-09-09T03:40:10;23.63;;;15.63;;
3249;SDS011;1637;42.020;23.992;2022-09-09T03:42:38;57.70;;;35.30;;
3249;SDS011;1637;42.020;23.992;2022-09-09T03:45:06;18.13;;;13.90;;
3249;SDS011;1637;42.020;23.992;2022-09-09T03:47:35;28.73;;;14.43;;
3249;SDS011;1637;42.020;23.992;2022-09-09T03:50:03;32.27;;;19.27;;
3249;SDS011;1637;42.020;23.992;2022-09-09T03:52:35;23.33;;;16.80;;
3249;SDS011;1637;42.020;23.992;2022-09-09T03:55:02;26.57;;;16.10;;
3249;SDS011;1637;42.020;23.992;2022-09-09T03:57:29;40.57;;;16.00;;
3249;SDS011;1637;42.020;23.992;2022-09-09T03:59:56;25.57;;;16.97;;
3249;SDS011;1637;42.020;23.992;2022-09-09T04:02:26;29.93;;;15.60;;
3249;SDS011;1637;42.020;23.992;2022-09-09T04:04:53;38.33;;;14.67;;
3249;SDS011;1637;42.020;23.992;2022-09-09T04:07:19;26.03;;;16.50;;
3249;SDS011;1637;42.020;23.992;2022-09-09T04:09:47;43.67;;;23.20;;
3249;SDS011;1637;42.020;23.992;2022-09-09T04:12:14;24.43;;;16.93;;
3249;SDS011;1637;42.020;23.992;2022-09-09T04:14:41;25.70;;;15.10;;
3249;SDS011;1637;42.020;23.992;2022-09-09T04:17:08;34.17;;;15.20;;
3249;SDS011;1637;42.020;23.992;2022-09-09T04:19:35;26.27;;;14.00;;
3249;SDS011;1637;42.020;23.992;2022-09-09T04:22:02;31.10;;;14.37;;
3249;SDS011;1637;42.020;23.992;2022-09-09T04:24:29;24.43;;;14.27;;
3249;SDS011;1637;42.020;23.992;2022-09-09T04:26:57;28.53;;;13.30;;
3249;SDS011;1637;42.020;23.992;2022-09-09T04:29:24;26.33;;;13.00;;
3249;SDS011;1637;42.020;23.992;2022-09-09T04:31:51;29.17;;;14.20;;
3249;SDS011;1637;42.020;23.992;2022-09-09T04:34:18;18.03;;;12.77;;
3249;SDS011;1637;42.020;23.992;2022-09-09T04:36:45;20.27;;;11.80;;
3249;SDS011;1637;42.020;23.992;2022-09-09T04:39:11;22.83;;;16.77;;
3249;SDS011;1637;42.020;23.992;2022-09-09T04:41:39;22.53;;;13.00;;
3249;SDS011;1637;42.020;23.992;2022-09-09T04:44:08;54.17;;;16.83;;
3249;SDS011;1637;42.020;23.992;2022-09-09T04:46:35;30.53;;;12.67;;
3249;SDS011;1637;42.020;23.992;2022-09-09T04:49:01;50.80;;;14.60;;
3249;SDS011;1637;42.020;23.992;2022-09-09T04:51:28;18.50;;;11.90;;
3249;SDS011;1637;42.020;23.992;2022-09-09T04:53:56;17.93;;;13.03;;
3249;SDS011;1637;42.020;23.992;2022-09-09T04:56:23;26.83;;;13.43;;
3249;SDS011;1637;42.020;23.992;2022-09-09T04:58:52;25.60;;;13.73;;
3249;SDS011;1637;42.020;23.992;2022-09-09T05:01:21;24.03;;;12.90;;
3249;SDS011;1637;42.020;23.992;2022-09-09T05:03:49;32.33;;;15.70;;
3249;SDS011;1637;42.020;23.992;2022-09-09T05:06:17;25.03;;;12.40;;
3249;SDS011;1637;42.020;23.992;2022-09-09T05:08:46;27.23;;;12.60;;
3249;SDS011;1637;42.020;23.992;2022-09-09T05:11:15;23.03;;;13.83;;
3249;SDS011;1637;42.020;23.992;2022-09-09T05:13:43;25.23;;;13.37;;
3249;SDS011;1637;42.020;23.992;2022-09-09T05:16:10;16.70;;;11.60;;
3249;SDS011;1637;42.020;23.992;2022-09-09T05:18:38;33.60;;;14.10;;
3249;SDS011;1637;42.020;23.992;2022-09-09T05:21:07;150.13;;;58.33;;
3249;SDS011;1637;42.020;23.992;2022-09-09T05:23:34;395.03;;;162.43;;
3249;SDS011;1637;42.020;23.992;2022-09-09T05:26:02;122.80;;;57.77;;
3249;SDS011;1637;42.020;23.992;2022-09-09T05:28:29;45.97;;;24.80;;
3249;SDS011;1637;42.020;23.992;2022-09-09T05:30:56;19.17;;;13.27;;
3249;SDS011;1637;42.020;23.992;2022-09-09T05:33:25;33.40;;;25.80;;
3249;SDS011;1637;42.020;23.992;2022-09-09T05:35:57;30.30;;;18.30;;
3249;SDS011;1637;42.020;23.992;2022-09-09T05:38:25;12.90;;;10.13;;
3249;SDS011;1637;42.020;23.992;2022-09-09T05:40:52;24.73;;;14.87;;
3249;SDS011;1637;42.020;23.992;2022-09-09T05:43:19;16.93;;;11.07;;
3249;SDS011;1637;42.020;23.992;2022-09-09T05:45:46;11.23;;;9.80;;
3249;SDS011;1637;42.020;23.992;2022-09-09T05:48:13;17.47;;;11.20;;
3249;SDS011;1637;42.020;23.992;2022-09-09T05:50:41;15.40;;;11.30;;
3249;SDS011;1637;42.020;23.992;2022-09-09T05:53:11;15.13;;;11.33;;
3249;SDS011;1637;42.020;23.992;2022-09-09T05:55:38;16.67;;;12.07;;
3249;SDS011;1637;42.020;23.992;2022-09-09T05:58:05;18.00;;;10.83;;
3249;SDS011;1637;42.020;23.992;2022-09-09T06:00:32;20.57;;;11.40;;
3249;SDS011;1637;42.020;23.992;2022-09-09T06:02:59;37.17;;;20.03;;
3249;SDS011;1637;42.020;23.992;2022-09-09T06:05:26;13.80;;;9.70;;
3249;SDS011;1637;42.020;23.992;2022-09-09T06:07:53;19.97;;;12.60;;
3249;SDS011;1637;42.020;23.992;2022-09-09T06:10:22;17.43;;;13.33;;
3249;SDS011;1637;42.020;23.992;2022-09-09T06:12:51;15.00;;;9.80;;
3249;SDS011;1637;42.020;23.992;2022-09-09T06:15:19;12.87;;;9.53;;
3249;SDS011;1637;42.020;23.992;2022-09-09T06:17:46;14.40;;;10.67;;
3249;SDS011;1637;42.020;23.992;2022-09-09T06:20:14;12.50;;;11.20;;
3249;SDS011;1637;42.020;23.992;2022-09-09T06:22:41;12.33;;;9.23;;
3249;SDS011;1637;42.020;23.992;2022-09-09T06:25:08;15.93;;;10.10;;
3249;SDS011;1637;42.020;23.992;2022-09-09T06:27:37;13.50;;;10.13;;
3249;SDS011;1637;42.020;23.992;2022-09-09T06:30:04;14.50;;;9.07;;
3249;SDS011;1637;42.020;23.992;2022-09-09T06:32:32;20.80;;;11.30;;
3249;SDS011;1637;42.020;23.992;2022-09-09T06:35:03;15.83;;;10.20;;
3249;SDS011;1637;42.020;23.992;2022-09-09T06:37:30;18.33;;;12.37;;
3249;SDS011;1637;42.020;23.992;2022-09-09T06:39:57;38.03;;;14.57;;
3249;SDS011;1637;42.020;23.992;2022-09-09T06:42:24;28.00;;;15.87;;
3249;SDS011;1637;42.020;23.992;2022-09-09T06:44:52;18.73;;;14.20;;
3249;SDS011;1637;42.020;23.992;2022-09-09T06:47:19;36.37;;;17.77;;
3249;SDS011;1637;42.020;23.992;2022-09-09T06:49:46;13.70;;;9.67;;
3249;SDS011;1637;42.020;23.992;2022-09-09T06:52:12;13.87;;;9.80;;
3249;SDS011;1637;42.020;23.992;2022-09-09T06:54:39;14.63;;;9.80;;
3249;SDS011;1637;42.020;23.992;2022-09-09T06:57:06;17.20;;;9.77;;
3249;SDS011;1637;42.020;23.992;2022-09-09T06:59:33;17.47;;;11.20;;
3249;SDS011;1637;42.020;23.992;2022-09-09T07:02:01;14.00;;;9.63;;
3249;SDS011;1637;42.020;23.992;2022-09-09T07:04:28;15.07;;;9.20;;
3249;SDS011;1637;42.020;23.992;2022-09-09T07:06:56;10.13;;;7.80;;
3249;SDS011;1637;42.020;23.992;2022-09-09T07:09:24;15.40;;;9.73;;
3249;SDS011;1637;42.020;23.992;2022-09-09T07:11:51;14.30;;;8.53;;
3249;SDS011;1637;42.020;23.992;2022-09-09T07:14:18;11.73;;;8.57;;
3249;SDS011;1637;42.020;23.992;2022-09-09T07:16:46;23.60;;;8.30;;
3249;SDS011;1637;42.020;23.992;2022-09-09T07:19:14;18.67;;;9.23;;
3249;SDS011;1637;42.020;23.992;2022-09-09T07:21:41;6.47;;;5.53;;
3249;SDS011;1637;42.020;23.992;2022-09-09T07:24:08;16.33;;;6.90;;
3249;SDS011;1637;42.020;23.992;2022-09-09T07:26:36;10.67;;;8.30;;
3249;SDS011;1637;42.020;23.992;2022-09-09T07:29:04;17.10;;;7.97;;
3249;SDS011;1637;42.020;23.992;2022-09-09T07:31:32;18.97;;;9.50;;
3249;SDS011;1637;42.020;23.992;2022-09-09T07:34:01;18.10;;;7.70;;
3249;SDS011;1637;42.020;23.992;2022-09-09T07:36:31;7.30;;;6.63;;
3249;SDS011;1637;42.020;23.992;2022-09-09T07:39:00;21.93;;;8.03;;
3249;SDS011;1637;42.020;23.992;2022-09-09T07:41:28;26.30;;;7.80;;
3249;SDS011;1637;42.020;23.992;2022-09-09T07:43:59;7.80;;;6.70;;
3249;SDS011;1637;42.020;23.992;2022-09-09T07:46:30;9.53;;;7.13;;
3249;SDS011;1637;42.020;23.992;2022-09-09T07:48:56;13.57;;;7.43;;
3249;SDS011;1637;42.020;23.992;2022-09-09T07:51:24;14.60;;;7.10;;
3249;SDS011;1637;42.020;23.992;2022-09-09T07:53:55;17.43;;;8.70;;
3249;SDS011;1637;42.020;23.992;2022-09-09T07:56:24;18.93;;;13.77;;
3249;SDS011;1637;42.020;23.992;2022-09-09T07:58:52;11.30;;;8.03;;
3249;SDS011;1637;42.020;23.992;2022-09-09T08:01:21;17.57;;;10.23;;
3249;SDS011;1637;42.020;23.992;2022-09-09T08:03:55;14.53;;;8.77;;
3249;SDS011;1637;42.020;23.992;2022-09-09T08:06:24;20.40;;;7.60;;
3249;SDS011;1637;42.020;23.992;2022-09-09T08:08:52;22.77;;;8.17;;
3249;SDS011;1637;42.020;23.992;2022-09-09T08:11:21;8.30;;;6.23;;
3249;SDS011;1637;42.020;23.992;2022-09-09T08:13:50;8.07;;;6.50;;
3249;SDS011;1637;42.020;23.992;2022-09-09T08:16:18;14.97;;;7.30;;
3249;SDS011;1637;42.020;23.992;2022-09-09T08:18:47;11.00;;;6.93;;
3249;SDS011;1637;42.020;23.992;2022-09-09T08:21:15;14.70;;;6.80;;
3249;SDS011;1637;42.020;23.992;2022-09-09T08:23:45;13.20;;;6.60;;
3249;SDS011;1637;42.020;23.992;2022-09-09T08:26:14;21.93;;;7.90;;
3249;SDS011;1637;42.020;23.992;2022-09-09T08:28:42;10.03;;;6.70;;
3249;SDS011;1637;42.020;23.992;2022-09-09T08:31:10;15.27;;;7.57;;
3249;SDS011;1637;42.020;23.992;2022-09-09T08:33:38;16.30;;;7.03;;
3249;SDS011;1637;42.020;23.992;2022-09-09T08:36:06;12.93;;;6.87;;
3249;SDS011;1637;42.020;23.992;2022-09-09T08:38:35;11.40;;;7.00;;
3249;SDS011;1637;42.020;23.992;2022-09-09T08:43:58;20.70;;;7.50;;
3249;SDS011;1637;42.020;23.992;2022-09-09T08:46:33;8.67;;;7.40;;
3249;SDS011;1637;42.020;23.992;2022-09-09T08:49:06;22.13;;;8.37;;
3249;SDS011;1637;42.020;23.992;2022-09-09T08:51:46;7.40;;;6.67;;
3249;SDS011;1637;42.020;23.992;2022-09-09T08:54:15;10.20;;;7.20;;
3249;SDS011;1637;42.020;23.992;2022-09-09T08:56:45;13.70;;;7.37;;
3249;SDS011;1637;42.020;23.992;2022-09-09T08:59:13;15.90;;;7.73;;
3249;SDS011;1637;42.020;23.992;2022-09-09T09:01:48;9.07;;;7.40;;
3249;SDS011;1637;42.020;23.992;2022-09-09T09:04:33;12.60;;;6.20;;
3249;SDS011;1637;42.020;23.992;2022-09-09T09:07:11;7.90;;;6.60;;
3249;SDS011;1637;42.020;23.992;2022-09-09T09:09:48;11.70;;;7.03;;
3249;SDS011;1637;42.020;23.992;2022-09-09T09:12:25;15.17;;;6.80;;
3249;SDS011;1637;42.020;23.992;2022-09-09T09:14:55;14.40;;;6.70;;
3249;SDS011;1637;42.020;23.992;2022-09-09T09:17:25;8.13;;;7.07;;
3249;SDS011;1637;42.020;23.992;2022-09-09T09:19:56;10.07;;;7.90;;
3249;SDS011;1637;42.020;23.992;2022-09-09T09:22:26;14.80;;;10.03;;
3249;SDS011;1637;42.020;23.992;2022-09-09T09:25:00;8.37;;;6.60;;
3249;SDS011;1637;42.020;23.992;2022-09-09T09:27:39;6.93;;;6.03;;
3249;SDS011;1637;42.020;23.992;2022-09-09T09:30:13;17.57;;;7.80;;
3249;SDS011;1637;42.020;23.992;2022-09-09T09:32:44;16.33;;;6.90;;
3249;SDS011;1637;42.020;23.992;2022-09-09T09:35:18;8.33;;;6.63;;
3249;SDS011;1637;42.020;23.992;2022-09-09T09:37:44;8.27;;;6.30;;
3249;SDS011;1637;42.020;23.992;2022-09-09T09:40:12;14.13;;;6.57;;
3249;SDS011;1637;42.020;23.992;2022-09-09T09:42:48;7.00;;;5.70;;
3249;SDS011;1637;42.020;23.992;2022-09-09T09:45:20;6.10;;;5.20;;
3249;SDS011;1637;42.020;23.992;2022-09-09T09:47:58;7.40;;;6.37;;
3249;SDS011;1637;42.020;23.992;2022-09-09T09:50:27;6.80;;;6.10;;
3249;SDS011;1637;42.020;23.992;2022-09-09T09:52:55;10.90;;;5.70;;
3249;SDS011;1637;42.020;23.992;2022-09-09T09:55:23;7.88;;;6.57;;
3249;SDS011;1637;42.020;23.992;2022-09-09T09:57:54;8.50;;;5.70;;
3249;SDS011;1637;42.020;23.992;2022-09-09T10:00:26;7.30;;;5.50;;
3249;SDS011;1637;42.020;23.992;2022-09-09T10:02:53;11.35;;;5.65;;
3249;SDS011;1637;42.020;23.992;2022-09-09T10:05:22;6.18;;;5.57;;
3249;SDS011;1637;42.020;23.992;2022-09-09T10:08:00;9.63;;;6.80;;
3249;SDS011;1637;42.020;23.992;2022-09-09T10:10:35;7.38;;;6.68;;
3249;SDS011;1637;42.020;23.992;2022-09-09T10:13:14;12.60;;;6.00;;
3249;SDS011;1637;42.020;23.992;2022-09-09T10:15:48;16.33;;;6.87;;
3249;SDS011;1637;42.020;23.992;2022-09-09T10:21:20;8.33;;;5.10;;
3249;SDS011;1637;42.020;23.992;2022-09-09T10:24:03;9.23;;;5.50;;
3249;SDS011;1637;42.020;23.992;2022-09-09T10:26:43;5.40;;;4.90;;
3249;SDS011;1637;42.020;23.992;2022-09-09T10:29:21;12.50;;;5.57;;
3249;SDS011;1637;42.020;23.992;2022-09-09T10:32:02;5.00;;;4.60;;
3249;SDS011;1637;42.020;23.992;2022-09-09T10:34:45;6.03;;;4.53;;
3249;SDS011;1637;42.020;23.992;2022-09-09T10:37:25;7.83;;;5.20;;
3249;SDS011;1637;42.020;23.992;2022-09-09T10:40:08;8.03;;;4.97;;
3249;SDS011;1637;42.020;23.992;2022-09-09T10:42:49;5.40;;;4.70;;
3249;SDS011;1637;42.020;23.992;2022-09-09T10:45:18;10.17;;;4.60;;
3249;SDS011;1637;42.020;23.992;2022-09-09T10:48:04;9.87;;;6.17;;
3249;SDS011;1637;42.020;23.992;2022-09-09T10:50:49;5.73;;;4.87;;
3249;SDS011;1637;42.020;23.992;2022-09-09T10:53:24;9.53;;;5.10;;
3249;SDS011;1637;42.020;23.992;2022-09-09T10:56:01;8.37;;;5.20;;
3249;SDS011;1637;42.020;23.992;2022-09-09T10:58:31;6.40;;;4.57;;
3249;SDS011;1637;42.020;23.992;2022-09-09T11:01:09;16.43;;;5.17;;
3249;SDS011;1637;42.020;23.992;2022-09-09T11:03:41;10.87;;;6.27;;
3249;SDS011;1637;42.020;23.992;2022-09-09T11:06:10;9.87;;;5.73;;
3249;SDS011;1637;42.020;23.992;2022-09-09T11:08:41;9.87;;;4.40;;
3249;SDS011;1637;42.020;23.992;2022-09-09T11:11:09;15.90;;;5.07;;
3249;SDS011;1637;42.020;23.992;2022-09-09T11:13:42;7.00;;;5.70;;
3249;SDS011;1637;42.020;23.992;2022-09-09T11:16:19;6.90;;;4.97;;
3249;SDS011;1637;42.020;23.992;2022-09-09T11:18:53;12.40;;;6.20;;
3249;SDS011;1637;42.020;23.992;2022-09-09T11:21:25;14.67;;;11.83;;
3249;SDS011;1637;42.020;23.992;2022-09-09T11:23:58;24.67;;;9.57;;
3249;SDS011;1637;42.020;23.992;2022-09-09T11:26:30;14.00;;;6.40;;
3249;SDS011;1637;42.020;23.992;2022-09-09T11:29:09;10.50;;;8.20;;
3249;SDS011;1637;42.020;23.992;2022-09-09T11:32:03;11.00;;;7.50;;
3249;SDS011;1637;42.020;23.992;2022-09-09T11:34:47;5.37;;;4.67;;
3249;SDS011;1637;42.020;23.992;2022-09-09T11:37:24;15.07;;;5.93;;
3249;SDS011;1637;42.020;23.992;2022-09-09T11:40:15;8.43;;;5.67;;
3249;SDS011;1637;42.020;23.992;2022-09-09T11:42:45;7.90;;;5.23;;
3249;SDS011;1637;42.020;23.992;2022-09-09T11:45:22;17.73;;;9.43;;
3249;SDS011;1637;42.020;23.992;2022-09-09T11:47:54;19.23;;;9.60;;
3249;SDS011;1637;42.020;23.992;2022-09-09T11:53:21;29.07;;;16.70;;
3249;SDS011;1637;42.020;23.992;2022-09-09T11:56:00;16.20;;;6.83;;
3249;SDS011;1637;42.020;23.992;2022-09-09T11:58:36;9.30;;;5.70;;
3249;SDS011;1637;42.020;23.992;2022-09-09T12:01:13;8.60;;;5.53;;
3249;SDS011;1637;42.020;23.992;2022-09-09T12:04:16;7.50;;;4.80;;
3249;SDS011;1637;42.020;23.992;2022-09-09T12:06:54;12.90;;;6.73;;
3249;SDS011;1637;42.020;23.992;2022-09-09T12:09:26;16.47;;;8.10;;
3249;SDS011;1637;42.020;23.992;2022-09-09T12:12:23;14.73;;;8.80;;
3249;SDS011;1637;42.020;23.992;2022-09-09T12:15:00;18.53;;;10.40;;
3249;SDS011;1637;42.020;23.992;2022-09-09T12:17:30;14.90;;;10.40;;
3249;SDS011;1637;42.020;23.992;2022-09-09T12:20:08;8.63;;;4.93;;
3249;SDS011;1637;42.020;23.992;2022-09-09T12:22:49;19.57;;;7.40;;
3249;SDS011;1637;42.020;23.992;2022-09-09T12:25:26;14.30;;;7.20;;
3249;SDS011;1637;42.020;23.992;2022-09-09T12:28:04;10.10;;;5.30;;
3249;SDS011;1637;42.020;23.992;2022-09-09T12:30:37;27.77;;;12.00;;
3249;SDS011;1637;42.020;23.992;2022-09-09T12:33:13;16.60;;;7.00;;
3249;SDS011;1637;42.020;23.992;2022-09-09T12:35:45;8.90;;;4.03;;
3249;SDS011;1637;42.020;23.992;2022-09-09T12:38:18;14.57;;;5.27;;
3249;SDS011;1637;42.020;23.992;2022-09-09T12:40:55;6.73;;;4.93;;
3249;SDS011;1637;42.020;23.992;2022-09-09T12:43:24;8.87;;;4.60;;
3249;SDS011;1637;42.020;23.992;2022-09-09T12:45:52;11.67;;;7.67;;
3249;SDS011;1637;42.020;23.992;2022-09-09T12:48:25;8.70;;;6.37;;
3249;SDS011;1637;42.020;23.992;2022-09-09T12:50:58;21.97;;;10.53;;
3249;SDS011;1637;42.020;23.992;2022-09-09T12:53:28;10.53;;;7.47;;
3249;SDS011;1637;42.020;23.992;2022-09-09T12:55:59;6.13;;;4.10;;
3249;SDS011;1637;42.020;23.992;2022-09-09T12:58:28;12.00;;;4.77;;
3249;SDS011;1637;42.020;23.992;2022-09-09T13:00:59;7.93;;;3.93;;
3249;SDS011;1637;42.020;23.992;2022-09-09T13:03:30;10.17;;;5.40;;
3249;SDS011;1637;42.020;23.992;2022-09-09T13:06:10;4.77;;;3.90;;
3249;SDS011;1637;42.020;23.992;2022-09-09T13:08:39;8.90;;;5.50;;
3249;SDS011;1637;42.020;23.992;2022-09-09T13:11:07;11.10;;;4.07;;
3249;SDS011;1637;42.020;23.992;2022-09-09T13:13:39;7.00;;;3.90;;
3249;SDS011;1637;42.020;23.992;2022-09-09T13:16:18;8.70;;;3.90;;
3249;SDS011;1637;42.020;23.992;2022-09-09T13:18:47;4.93;;;4.00;;
3249;SDS011;1637;42.020;23.992;2022-09-09T13:21:15;9.00;;;4.03;;
3249;SDS011;1637;42.020;23.992;2022-09-09T13:23:42;5.87;;;4.30;;
3249;SDS011;1637;42.020;23.992;2022-09-09T13:26:20;8.80;;;4.37;;
3249;SDS011;1637;42.020;23.992;2022-09-09T13:28:49;10.43;;;4.03;;
3249;SDS011;1637;42.020;23.992;2022-09-09T13:31:21;8.53;;;3.87;;
3249;SDS011;1637;42.020;23.992;2022-09-09T13:33:52;12.07;;;6.50;;
3249;SDS011;1637;42.020;23.992;2022-09-09T13:36:28;9.20;;;3.30;;
3249;SDS011;1637;42.020;23.992;2022-09-09T13:38:57;5.13;;;3.60;;
3249;SDS011;1637;42.020;23.992;2022-09-09T13:41:27;6.50;;;4.73;;
3249;SDS011;1637;42.020;23.992;2022-09-09T13:43:56;8.70;;;3.93;;
3249;SDS011;1637;42.020;23.992;2022-09-09T13:46:28;15.20;;;9.33;;
3249;SDS011;1637;42.020;23.992;2022-09-09T13:48:59;5.33;;;3.73;;
3249;SDS011;1637;42.020;23.992;2022-09-09T13:51:34;10.03;;;5.27;;
3249;SDS011;1637;42.020;23.992;2022-09-09T13:54:03;13.43;;;5.00;;
3249;SDS011;1637;42.020;23.992;2022-09-09T13:56:30;7.07;;;4.43;;
3249;SDS011;1637;42.020;23.992;2022-09-09T13:58:57;10.07;;;6.10;;
3249;SDS011;1637;42.020;23.992;2022-09-09T14:01:24;7.30;;;5.97;;
3249;SDS011;1637;42.020;23.992;2022-09-09T14:03:52;20.80;;;4.80;;
3249;SDS011;1637;42.020;23.992;2022-09-09T14:06:19;13.40;;;4.70;;
3249;SDS011;1637;42.020;23.992;2022-09-09T14:08:49;5.60;;;3.80;;
3249;SDS011;1637;42.020;23.992;2022-09-09T14:11:17;9.37;;;5.07;;
3249;SDS011;1637;42.020;23.992;2022-09-09T14:13:44;5.23;;;4.43;;
3249;SDS011;1637;42.020;23.992;2022-09-09T14:16:11;8.97;;;5.20;;
3249;SDS011;1637;42.020;23.992;2022-09-09T14:18:38;10.00;;;5.60;;
3249;SDS011;1637;42.020;23.992;2022-09-09T14:21:05;13.40;;;4.77;;
3249;SDS011;1637;42.020;23.992;2022-09-09T14:23:34;6.53;;;3.97;;
3249;SDS011;1637;42.020;23.992;2022-09-09T14:26:02;11.43;;;5.10;;
3249;SDS011;1637;42.020;23.992;2022-09-09T14:28:29;13.40;;;5.67;;
3249;SDS011;1637;42.020;23.992;2022-09-09T14:30:58;5.30;;;4.40;;
3249;SDS011;1637;42.020;23.992;2022-09-09T14:33:25;14.13;;;5.00;;
3249;SDS011;1637;42.020;23.992;2022-09-09T14:35:55;10.70;;;5.30;;
3249;SDS011;1637;42.020;23.992;2022-09-09T14:38:23;5.50;;;5.00;;
3249;SDS011;1637;42.020;23.992;2022-09-09T14:40:50;8.47;;;5.40;;
3249;SDS011;1637;42.020;23.992;2022-09-09T14:43:19;8.73;;;7.33;;
3249;SDS011;1637;42.020;23.992;2022-09-09T14:45:46;8.97;;;6.90;;
3249;SDS011;1637;42.020;23.992;2022-09-09T14:48:13;9.80;;;6.17;;
3249;SDS011;1637;42.020;23.992;2022-09-09T14:50:41;15.53;;;5.80;;
3249;SDS011;1637;42.020;23.992;2022-09-09T14:53:08;17.50;;;6.50;;
3249;SDS011;1637;42.020;23.992;2022-09-09T14:55:35;15.23;;;9.70;;
3249;SDS011;1637;42.020;23.992;2022-09-09T14:58:02;16.03;;;7.27;;
3249;SDS011;1637;42.020;23.992;2022-09-09T15:00:31;15.03;;;5.90;;
3249;SDS011;1637;42.020;23.992;2022-09-09T15:02:59;11.73;;;5.70;;
3249;SDS011;1637;42.020;23.992;2022-09-09T15:05:26;16.13;;;7.80;;
3249;SDS011;1637;42.020;23.992;2022-09-09T15:07:53;8.87;;;5.60;;
3249;SDS011;1637;42.020;23.992;2022-09-09T15:10:19;11.97;;;6.60;;
3249;SDS011;1637;42.020;23.992;2022-09-09T15:12:47;9.70;;;5.60;;
3249;SDS011;1637;42.020;23.992;2022-09-09T15:15:13;8.70;;;5.27;;